createdAt,value
2023-01-19T00:02:41.779Z,95461.27
2023-01-19T00:07:00.903Z,95458.21
2023-01-19T00:11:02.227Z,95471.23
2023-01-19T00:14:50.376Z,95487.83
2023-01-19T00:18:35.080Z,95482.03
2023-01-19T00:23:16.850Z,95488.98
2023-01-19T00:26:39.501Z,95470.50
2023-01-19T00:30:20.735Z,95468.80
2023-01-19T00:34:08.963Z,95465.13
2023-01-19T00:38:01.003Z,95489.52
2023-01-19T00:42:10.401Z,95454.80
2023-01-19T00:50:38.622Z,95482.13
2023-01-19T00:54:27.580Z,95470.24
2023-01-19T00:58:36.834Z,95469.58
2023-01-19T01:03:12.311Z,95467.39
2023-01-19T01:06:37.200Z,95467.02
2023-01-19T01:10:19.080Z,95463.66
2023-01-19T01:14:08.577Z,95454.29
2023-01-19T01:18:17.908Z,95447.53
2023-01-19T01:22:18.398Z,95446.34
2023-01-19T01:26:07.977Z,95433.02
2023-01-19T01:29:55.908Z,95423.10
2023-01-19T01:33:40.821Z,95419.13
2023-01-19T01:37:39.640Z,95429.90
2023-01-19T01:41:30.955Z,95428.13
2023-01-19T01:45:23.995Z,95412.90
2023-01-19T01:49:33.544Z,95392.92
2023-01-19T01:54:20.493Z,95409.23
2023-01-19T01:57:43.281Z,95398.29
2023-01-19T02:01:30.246Z,95393.38
2023-01-19T02:05:21.799Z,95393.40
2023-01-19T02:09:23.576Z,95386.67
2023-01-19T02:13:45.269Z,95396.86
2023-01-19T02:17:55.989Z,95400.93
2023-01-19T02:23:03.558Z,95400.32
2023-01-19T02:26:34.044Z,95356.39
2023-01-19T02:32:59.758Z,95365.23
2023-01-19T02:35:09.952Z,95368.10
2023-01-19T02:39:12.765Z,95376.30
2023-01-19T02:43:14.726Z,95395.41
2023-01-19T02:47:04.626Z,95383.83
2023-01-19T02:51:46.343Z,95380.92
2023-01-19T02:56:17.942Z,95391.77
2023-01-19T02:59:38.893Z,95390.14
2023-01-19T03:03:47.566Z,95381.16
2023-01-19T03:08:11.005Z,95380.77
2023-01-19T03:12:01.284Z,95362.13
2023-01-19T03:16:09.119Z,95372.11
2023-01-19T03:20:13.491Z,95360.10
2023-01-19T03:24:21.745Z,95368.36
2023-01-19T03:28:27.411Z,95365.53
2023-01-19T03:33:04.972Z,95362.00
2023-01-19T03:37:17.293Z,95366.25
2023-01-19T03:41:29.703Z,95368.02
2023-01-19T03:45:22.560Z,95368.98
2023-01-19T03:49:30.447Z,95382.56
2023-01-19T03:58:07.087Z,95388.33
2023-01-19T04:03:02.946Z,95377.65
2023-01-19T04:08:20.689Z,95381.81
2023-01-19T04:11:14.216Z,95378.45
2023-01-19T04:15:07.058Z,95381.98
2023-01-19T04:20:39.582Z,95373.59
2023-01-19T04:23:46.871Z,95355.31
2023-01-19T04:28:21.549Z,95349.63
2023-01-19T04:31:46.849Z,95360.29
2023-01-19T04:41:16.167Z,95371.73
2023-01-19T04:44:40.285Z,95374.83
2023-01-19T04:52:46.538Z,95378.64
2023-01-19T04:56:58.813Z,95385.34
2023-01-19T05:01:15.808Z,95406.27
2023-01-19T05:05:25.789Z,95416.65
2023-01-19T05:09:34.828Z,95432.08
2023-01-19T05:13:44.200Z,95433.28
2023-01-19T05:17:27.072Z,95427.99
2023-01-19T05:29:38.468Z,95447.97
2023-01-19T05:31:11.018Z,95452.04
2023-01-19T05:35:35.397Z,95453.09
2023-01-19T05:39:41.161Z,95456.59
2023-01-19T05:44:07.879Z,95465.70
2023-01-19T05:48:18.284Z,95472.44
2023-01-19T05:52:07.820Z,95474.20
2023-01-19T05:56:03.893Z,95474.36
2023-01-19T06:00:30.258Z,95463.12
2023-01-19T06:04:16.701Z,95462.57
2023-01-19T06:08:04.595Z,95456.02
2023-01-19T06:11:53.070Z,95455.10
2023-01-19T06:15:49.776Z,95444.64
2023-01-19T06:20:03.711Z,95454.73
2023-01-19T06:23:51.662Z,95448.80
2023-01-19T06:27:39.504Z,95453.48
2023-01-19T06:31:32.942Z,95455.44
2023-01-19T06:35:24.906Z,95453.69
2023-01-19T06:40:04.332Z,95457.45
2023-01-19T06:43:27.975Z,95435.61
2023-01-19T06:47:25.256Z,95433.95
2023-01-19T06:51:34.807Z,95446.47
2023-01-19T06:55:30.826Z,95451.80
2023-01-19T06:59:38.783Z,95460.73
2023-01-19T07:03:37.815Z,95459.27
2023-01-19T07:07:59.454Z,95451.09
2023-01-19T07:12:20.815Z,95454.77
2023-01-19T07:16:14.267Z,95445.23
2023-01-19T07:21:41.135Z,95438.23
2023-01-19T07:24:32.352Z,95433.71
2023-01-19T07:28:35.747Z,95429.63
2023-01-19T07:32:51.193Z,95457.45
2023-01-19T07:36:43.767Z,95451.47
2023-01-19T07:40:38.572Z,95443.69
2023-01-19T07:45:27.170Z,95441.92
2023-01-19T07:48:54.998Z,95445.92
2023-01-19T07:53:27.163Z,95458.14
2023-01-19T07:57:25.108Z,95455.17
2023-01-19T08:01:13.596Z,95470.61
2023-01-19T08:05:29.637Z,95464.86
2023-01-19T08:09:28.441Z,95473.12
2023-01-19T08:13:19.025Z,95467.08
2023-01-19T08:17:30.323Z,95458.50
2023-01-19T08:21:32.813Z,95455.42
2023-01-19T08:25:41.713Z,95444.81
2023-01-19T08:29:32.863Z,95445.75
2023-01-19T08:33:27.948Z,95457.60
2023-01-19T08:37:31.821Z,95458.58
2023-01-19T08:41:40.967Z,95449.98
2023-01-19T08:45:33.779Z,95447.45
2023-01-19T08:49:41.701Z,95447.34
2023-01-19T08:53:54.805Z,95436.72
2023-01-19T08:57:47.875Z,95434.94
2023-01-19T09:01:16.305Z,95427.53
2023-01-19T09:05:10.573Z,95433.78
2023-01-19T09:09:24.302Z,95432.48
2023-01-19T09:13:12.207Z,95431.38
2023-01-19T09:17:02.228Z,95435.90
2023-01-19T09:20:54.581Z,95434.92
2023-01-19T09:25:13.992Z,95428.16
2023-01-19T09:29:12.582Z,95421.09
2023-01-19T09:33:13.377Z,95427.51
2023-01-19T09:37:02.714Z,95426.31
2023-01-19T09:40:55.500Z,95417.11
2023-01-19T09:44:49.787Z,95415.91
2023-01-19T09:48:40.541Z,95417.77
2023-01-19T09:52:30.673Z,95417.85
2023-01-19T09:56:43.841Z,95420.70
2023-01-19T10:00:38.066Z,95413.09
2023-01-19T10:04:46.433Z,95403.40
2023-01-19T10:08:56.890Z,95390.61
2023-01-19T10:12:57.029Z,95369.01
2023-01-19T10:16:50.559Z,95376.67
2023-01-19T10:20:39.767Z,95377.20
2023-01-19T10:25:03.338Z,95391.52
2023-01-19T10:30:38.707Z,95393.55
2023-01-19T10:33:24.494Z,95403.91
2023-01-19T10:37:13.059Z,95384.42
2023-01-19T10:40:56.967Z,95382.53
2023-01-19T10:46:48.673Z,95385.84
2023-01-19T10:49:37.826Z,95381.76
2023-01-19T10:53:38.970Z,95372.92
2023-01-19T10:57:41.831Z,95372.38
2023-01-19T11:01:35.375Z,95366.95
2023-01-19T11:10:27.414Z,95376.65
2023-01-19T11:14:19.936Z,95377.18
2023-01-19T11:18:28.413Z,95370.13
2023-01-19T11:22:18.720Z,95370.42
2023-01-19T11:30:35.759Z,95365.73
2023-01-19T11:38:29.096Z,95376.25
2023-01-19T11:42:32.445Z,95363.77
2023-01-19T11:46:29.034Z,95340.61
2023-01-19T11:50:32.071Z,95345.99
2023-01-19T11:54:36.087Z,95355.37
2023-01-19T11:58:28.105Z,95344.45
2023-01-19T12:02:22.716Z,95363.82
2023-01-19T12:06:23.911Z,95382.13
2023-01-19T12:10:17.933Z,95394.56
2023-01-19T12:14:26.487Z,95420.14
2023-01-19T12:19:07.313Z,95387.26
2023-01-19T12:22:38.354Z,95410.67
2023-01-19T12:27:13.394Z,95399.59
2023-01-19T12:35:32.772Z,95391.23
2023-01-19T12:40:03.820Z,95391.69
2023-01-19T12:43:59.133Z,95402.41
2023-01-19T12:48:15.686Z,95419.61
2023-01-19T12:52:04.857Z,95433.85
2023-01-19T12:55:53.492Z,95439.48
2023-01-19T12:59:44.569Z,95462.60
2023-01-19T13:07:49.753Z,95446.78
2023-01-19T13:11:42.033Z,95447.41
2023-01-19T13:15:39.759Z,95452.64
2023-01-19T13:19:46.263Z,95459.58
2023-01-19T13:24:38.139Z,95453.42
2023-01-19T13:28:28.377Z,95443.76
2023-01-19T13:32:04.291Z,95433.62
2023-01-19T13:37:10.607Z,95435.96
2023-01-19T13:40:33.860Z,95451.73
2023-01-19T13:44:25.231Z,95454.31
2023-01-19T13:49:00.047Z,95439.52
2023-01-19T13:52:52.582Z,95439.83
2023-01-19T13:56:49.347Z,95449.10
2023-01-19T14:00:50.039Z,95452.42
2023-01-19T14:04:40.163Z,95454.95
2023-01-19T14:08:51.111Z,95466.09
2023-01-19T14:13:16.391Z,95482.84
2023-01-19T14:17:50.100Z,95499.84
2023-01-19T14:21:57.670Z,95505.04
2023-01-19T14:25:47.811Z,95505.59
2023-01-19T14:29:44.695Z,95506.63
2023-01-19T14:33:40.074Z,95513.15
2023-01-19T14:37:26.967Z,95519.70
2023-01-19T14:41:45.919Z,95528.13
2023-01-19T14:45:39.290Z,95539.05
2023-01-19T14:50:04.734Z,95532.17
2023-01-19T14:54:08.957Z,95529.36
2023-01-19T14:58:33.770Z,95525.33
2023-01-19T15:06:54.850Z,95508.77
2023-01-19T15:10:53.007Z,95513.94
2023-01-19T15:15:10.100Z,95532.13
2023-01-19T15:18:55.615Z,95540.05
2023-01-19T15:22:48.852Z,95547.70
2023-01-19T15:26:42.082Z,95551.05
2023-01-19T15:30:20.716Z,95563.92
2023-01-19T15:34:23.119Z,95567.83
2023-01-19T15:38:22.631Z,95565.95
2023-01-19T15:42:26.519Z,95575.98
2023-01-19T15:47:33.213Z,95578.08
2023-01-19T15:50:52.590Z,95591.58
2023-01-19T15:54:42.575Z,95607.19
2023-01-19T15:58:41.346Z,95610.67
2023-01-19T16:03:04.577Z,95624.38
2023-01-19T16:07:07.053Z,95641.35
2023-01-19T16:11:10.752Z,95639.53
2023-01-19T16:15:11.208Z,95651.48
2023-01-19T16:23:43.195Z,95673.23
2023-01-19T16:27:20.632Z,95677.48
2023-01-19T16:31:08.981Z,95687.67
2023-01-19T16:34:54.653Z,95691.29
2023-01-19T16:38:53.236Z,95684.66
2023-01-19T16:42:51.226Z,95691.73
2023-01-19T16:46:57.640Z,95686.29
2023-01-19T16:50:59.659Z,95696.05
2023-01-19T16:55:01.155Z,95706.68
2023-01-19T16:59:54.375Z,95711.35
2023-01-19T17:03:23.022Z,95686.50
2023-01-19T17:07:25.033Z,95668.89
2023-01-19T17:11:43.579Z,95665.44
2023-01-19T17:15:34.548Z,95671.39
2023-01-19T17:19:41.553Z,95671.90
2023-01-19T17:23:36.122Z,95676.04
2023-01-19T17:27:34.524Z,95680.23
2023-01-19T17:31:34.079Z,95696.50
2023-01-19T17:35:20.019Z,95703.63
2023-01-19T17:39:18.567Z,95706.05
2023-01-19T17:43:23.789Z,95709.42
2023-01-19T17:47:40.315Z,95736.02
2023-01-19T17:51:36.617Z,95741.55
2023-01-19T17:55:48.596Z,95747.02
2023-01-19T17:59:44.933Z,95763.15
2023-01-19T18:04:10.615Z,95765.23
2023-01-19T18:12:30.971Z,95774.90
2023-01-19T18:16:32.006Z,95777.58
2023-01-19T18:20:31.653Z,95770.02
2023-01-19T18:28:19.643Z,95788.95
2023-01-19T18:32:28.758Z,95788.88
2023-01-19T18:36:34.540Z,95797.98
2023-01-19T18:40:18.541Z,95809.56
2023-01-19T18:41:35.608Z,95781.59
2023-01-19T18:44:12.666Z,95814.14
2023-01-19T18:52:21.081Z,95846.90
2023-01-19T18:55:47.018Z,95848.96
2023-01-19T18:59:49.028Z,95837.98
2023-01-19T19:09:12.636Z,95833.64
2023-01-19T19:11:30.352Z,95838.02
2023-01-19T19:15:15.565Z,95840.89
2023-01-19T19:22:25.645Z,95836.15
2023-01-19T19:23:21.683Z,95824.36
2023-01-19T19:26:34.332Z,95814.08
2023-01-19T19:30:31.268Z,95809.24
2023-01-19T19:34:25.647Z,95817.63
2023-01-19T19:38:22.523Z,95815.89
2023-01-19T19:42:11.079Z,95814.58
2023-01-19T19:45:51.848Z,95818.82
2023-01-19T19:49:41.032Z,95832.20
2023-01-19T19:53:12.425Z,95837.16
2023-01-19T19:57:01.553Z,95841.45
2023-01-19T20:05:25.918Z,95833.11
2023-01-19T20:09:20.931Z,95831.24
2023-01-19T20:13:01.581Z,95828.33
2023-01-19T20:21:00.323Z,95823.89
2023-01-19T20:24:04.602Z,95826.05
2023-01-19T20:27:44.865Z,95828.16
2023-01-19T20:31:54.931Z,95837.28
2023-01-19T20:39:38.166Z,95845.43
2023-01-19T20:43:08.527Z,95848.69
2023-01-19T20:51:12.081Z,95872.36
2023-01-19T20:54:56.505Z,95873.73
2023-01-19T20:58:57.109Z,95876.95
2023-01-19T21:02:53.290Z,95878.37
2023-01-19T21:06:45.838Z,95879.77
2023-01-19T21:10:37.822Z,95885.98
2023-01-19T21:15:31.613Z,95890.42
2023-01-19T21:23:08.789Z,95882.62
2023-01-19T21:27:39.057Z,95891.52
2023-01-19T21:31:03.010Z,95896.02
2023-01-19T21:34:59.025Z,95887.64
2023-01-19T21:38:55.755Z,95895.82
2023-01-19T21:43:12.083Z,95900.82
2023-01-19T21:47:04.528Z,95902.14
2023-01-19T21:50:57.020Z,95898.39
2023-01-19T21:55:03.275Z,95896.01
2023-01-19T21:58:59.593Z,95898.37
2023-01-19T22:03:04.721Z,95919.77
2023-01-19T22:07:14.596Z,95924.75
2023-01-19T22:11:22.449Z,95907.31
2023-01-19T22:15:23.256Z,95905.97
2023-01-19T22:19:24.587Z,95884.45
2023-01-19T22:23:55.026Z,95874.20
2023-01-19T22:27:51.141Z,95875.80
2023-01-19T22:32:44.792Z,95874.65
2023-01-19T22:36:09.834Z,95878.85
2023-01-19T22:40:06.799Z,95885.44
2023-01-19T22:44:11.926Z,95891.00
2023-01-19T22:48:01.596Z,95882.77
2023-01-19T22:52:06.697Z,95883.98
2023-01-19T22:56:23.250Z,95860.65
2023-01-19T23:01:39.650Z,95859.67
2023-01-19T23:04:17.460Z,95867.13
2023-01-19T23:08:17.434Z,95868.89
2023-01-19T23:12:18.478Z,95878.34
2023-01-19T23:16:09.764Z,95868.11
2023-01-19T23:19:59.879Z,95860.15
2023-01-19T23:23:28.422Z,95867.05
2023-01-19T23:32:16.531Z,95862.69
2023-01-19T23:36:07.723Z,95864.67
2023-01-19T23:40:17.659Z,95867.81
2023-01-19T23:44:09.680Z,95865.83
2023-01-19T23:49:50.311Z,95870.65
2023-01-19T23:56:22.618Z,95872.50
